Time;durP1;ratioP1;P1;durP2;ratioP2;P2;SDS_P1;SDS_P2;PMS_P1;PMS_P2;Temp;Humidity;BMP_temperature;BMP_pressure;BME280_temperature;BME280_humidity;BME280_pressure;Samples;Min_cycle;Max_cycle;Signal;HPM_P1;HPM_P2
2021/03/17 06:00:53;;;;;;;32.60;16.00;;;;;;;;;;5234001;23;20054;-70
2021/03/17 06:03:19;;;;;;;34.78;16.25;;;;;;;;;;4950235;29;20019;-71
2021/03/17 06:05:46;;;;;;;35.67;17.05;;;;;;;;;;4950211;29;20038;-74
2021/03/17 06:08:25;;;;;;;34.53;16.95;;;;;;;;;;4933270;29;20143;-73
2021/03/17 06:10:52;;;;;;;41.00;18.65;;;;;;;;;;4952998;28;20804;-71
2021/03/17 06:13:20;;;;;;;33.58;17.20;;;;;;;;;;4954009;29;20748;-71
2021/03/17 06:15:50;;;;;;;38.35;16.60;;;;;;;;;;4952459;29;20039;-69
2021/03/17 06:18:17;;;;;;;51.15;20.83;;;;;;;;;;4954738;29;20041;-71
2021/03/17 06:20:43;;;;;;;49.70;19.48;;;;;;;;;;4953655;29;20082;-69
2021/03/17 06:23:09;;;;;;;50.47;20.13;;;;;;;;;;4954008;29;20042;-70
2021/03/17 06:25:36;;;;;;;48.83;19.25;;;;;;;;;;4953959;29;20030;-71
2021/03/17 06:28:02;;;;;;;40.00;18.45;;;;;;;;;;4953774;29;20035;-71
2021/03/17 06:30:28;;;;;;;35.58;16.65;;;;;;;;;;4953845;29;20029;-71
2021/03/17 06:32:54;;;;;;;33.33;16.48;;;;;;;;;;4953846;29;20059;-69
2021/03/17 06:35:22;;;;;;;32.30;16.48;;;;;;;;;;4953883;29;21170;-69
2021/03/17 06:37:49;;;;;;;31.02;15.43;;;;;;;;;;4953780;29;21132;-70
2021/03/17 06:40:21;;;;;;;41.40;16.75;;;;;;;;;;4937728;29;20059;-70
2021/03/17 06:42:47;;;;;;;37.97;17.33;;;;;;;;;;4954189;29;20094;-69
2021/03/17 06:45:13;;;;;;;38.60;17.05;;;;;;;;;;4954806;29;20027;-69
2021/03/17 06:47:39;;;;;;;41.50;18.20;;;;;;;;;;4955407;29;20434;-69
2021/03/17 06:50:15;;;;;;;39.47;17.55;;;;;;;;;;4955167;29;20035;-71
2021/03/17 06:52:43;;;;;;;39.40;18.08;;;;;;;;;;4954054;29;20027;-72
2021/03/17 06:55:11;;;;;;;29.38;14.75;;;;;;;;;;4937732;29;20427;-72
2021/03/17 06:57:39;;;;;;;42.75;20.73;;;;;;;;;;4937861;29;20060;-74
2021/03/17 07:00:18;;;;;;;45.65;19.83;;;;;;;;;;4931743;29;20048;-72
2021/03/17 07:03:03;;;;;;;44.15;17.42;;;;;;;;;;4919130;29;20122;-70
2021/03/17 07:05:34;;;;;;;41.40;18.75;;;;;;;;;;4920495;29;20032;-69
2021/03/17 07:08:01;;;;;;;42.05;19.42;;;;;;;;;;4937750;29;20077;-71
2021/03/17 07:10:28;;;;;;;44.22;19.05;;;;;;;;;;4919931;29;20035;-69
2021/03/17 07:12:55;;;;;;;42.17;18.35;;;;;;;;;;4937736;29;20080;-70
2021/03/17 07:15:21;;;;;;;52.20;24.58;;;;;;;;;;4920465;29;20036;-70
2021/03/17 07:17:47;;;;;;;39.50;18.55;;;;;;;;;;4937219;29;20080;-69
2021/03/17 07:20:13;;;;;;;36.33;17.60;;;;;;;;;;4936939;29;20027;-70
2021/03/17 07:22:39;;;;;;;39.17;19.88;;;;;;;;;;4919527;29;20039;-69
2021/03/17 07:25:06;;;;;;;40.70;19.30;;;;;;;;;;4920002;29;20477;-70
2021/03/17 07:27:33;;;;;;;44.97;20.20;;;;;;;;;;4919496;29;20039;-70
2021/03/17 07:29:59;;;;;;;42.47;19.05;;;;;;;;;;4919446;29;20118;-71
2021/03/17 07:32:26;;;;;;;37.13;19.02;;;;;;;;;;4919717;29;20489;-70
2021/03/17 07:34:52;;;;;;;41.03;18.17;;;;;;;;;;4919724;29;20054;-70
2021/03/17 07:37:18;;;;;;;43.28;19.58;;;;;;;;;;4919723;29;20094;-70
2021/03/17 07:39:44;;;;;;;37.15;17.13;;;;;;;;;;4919560;29;20050;-71
2021/03/17 07:42:11;;;;;;;37.42;16.55;;;;;;;;;;4936896;29;20027;-71
2021/03/17 07:44:38;;;;;;;32.10;16.83;;;;;;;;;;4919803;29;20032;-70
2021/03/17 07:47:05;;;;;;;39.40;18.55;;;;;;;;;;4936711;29;20115;-70
2021/03/17 07:49:31;;;;;;;41.45;18.88;;;;;;;;;;4919325;29;20059;-71
2021/03/17 07:52:02;;;;;;;37.45;17.80;;;;;;;;;;4918499;29;20031;-71
2021/03/17 07:54:29;;;;;;;42.53;20.70;;;;;;;;;;4899825;29;20044;-71
2021/03/17 07:57:00;;;;;;;44.53;18.38;;;;;;;;;;4900778;29;20126;-70
2021/03/17 07:59:29;;;;;;;42.53;18.45;;;;;;;;;;4900446;29;20036;-71
2021/03/17 08:01:58;;;;;;;43.42;18.30;;;;;;;;;;4900751;29;20032;-70
2021/03/17 08:04:34;;;;;;;39.90;17.65;;;;;;;;;;4917473;29;20036;-71
2021/03/17 08:07:00;;;;;;;32.22;15.88;;;;;;;;;;4900309;29;20061;-71
2021/03/17 08:09:27;;;;;;;35.20;17.92;;;;;;;;;;4900215;29;20036;-70
2021/03/17 08:11:54;;;;;;;36.47;16.85;;;;;;;;;;4900129;29;20031;-70
2021/03/17 08:14:21;;;;;;;32.65;16.38;;;;;;;;;;4900022;29;20092;-70
2021/03/17 08:16:47;;;;;;;30.92;15.48;;;;;;;;;;4917152;29;20052;-70
2021/03/17 08:19:24;;;;;;;33.60;15.88;;;;;;;;;;4917058;29;20444;-71
2021/03/17 08:22:03;;;;;;;29.35;14.40;;;;;;;;;;4922699;29;20032;-73
2021/03/17 08:26:58;;;;;;;29.67;14.82;;;;;;;;;;4935799;29;20042;-71
2021/03/17 08:29:35;;;;;;;31.67;13.98;;;;;;;;;;4918502;29;20032;-71
2021/03/17 08:32:01;;;;;;;29.20;12.90;;;;;;;;;;4918698;29;20032;-71
2021/03/17 08:34:28;;;;;;;46.88;22.58;;;;;;;;;;4918581;29;20507;-71
2021/03/17 08:36:58;;;;;;;39.38;19.60;;;;;;;;;;4918322;29;20488;-71
2021/03/17 08:39:44;;;;;;;39.72;19.98;;;;;;;;;;4918866;29;20473;-71
2021/03/17 08:42:12;;;;;;;25.42;13.57;;;;;;;;;;4918218;29;20353;-71
2021/03/17 08:44:38;;;;;;;30.15;13.57;;;;;;;;;;4916339;29;20031;-72
2021/03/17 08:47:22;;;;;;;26.77;13.48;;;;;;;;;;4916025;29;20028;-70
2021/03/17 08:49:49;;;;;;;25.05;14.07;;;;;;;;;;4917484;29;20036;-71
2021/03/17 08:52:19;;;;;;;29.60;14.73;;;;;;;;;;4918212;29;20028;-71
2021/03/17 08:54:49;;;;;;;37.50;16.83;;;;;;;;;;4918139;29;20047;-71
2021/03/17 08:57:15;;;;;;;32.85;15.98;;;;;;;;;;4917622;29;20027;-71
2021/03/17 08:59:42;;;;;;;30.00;15.82;;;;;;;;;;4921806;29;20051;-71
2021/03/17 09:02:20;;;;;;;27.20;14.52;;;;;;;;;;4937226;29;20113;-71
2021/03/17 09:04:50;;;;;;;26.40;13.85;;;;;;;;;;4935996;29;20400;-70
2021/03/17 09:07:17;;;;;;;26.03;14.53;;;;;;;;;;4954254;29;20130;-70
2021/03/17 09:09:47;;;;;;;25.13;14.15;;;;;;;;;;4937358;29;20035;-72
2021/03/17 09:12:13;;;;;;;28.85;13.60;;;;;;;;;;4954624;29;20469;-68
2021/03/17 09:14:39;;;;;;;23.98;13.70;;;;;;;;;;4954367;29;20038;-67
2021/03/17 09:17:14;;;;;;;23.23;13.40;;;;;;;;;;4954439;29;20070;-70
2021/03/17 09:20:03;;;;;;;25.63;12.98;;;;;;;;;;4952804;29;20062;-69
2021/03/17 09:22:36;;;;;;;23.63;12.65;;;;;;;;;;4952182;29;20032;-71
2021/03/17 09:25:12;;;;;;;41.72;17.10;;;;;;;;;;4953661;29;20028;-68
2021/03/17 09:27:45;;;;;;;27.38;12.60;;;;;;;;;;4953918;29;20035;-67
2021/03/17 09:30:11;;;;;;;52.22;19.73;;;;;;;;;;4954391;29;20032;-67
2021/03/17 09:32:37;;;;;;;32.10;14.00;;;;;;;;;;4954137;29;20039;-67
2021/03/17 09:35:03;;;;;;;18.63;10.88;;;;;;;;;;4935373;29;20110;-69
2021/03/17 09:37:30;;;;;;;23.08;11.23;;;;;;;;;;4953397;29;20035;-69
2021/03/17 09:39:56;;;;;;;23.17;12.60;;;;;;;;;;4953269;29;20048;-68
2021/03/17 09:42:22;;;;;;;27.92;13.60;;;;;;;;;;4936156;29;20039;-70
2021/03/17 09:44:55;;;;;;;25.13;12.38;;;;;;;;;;4954487;28;20066;-70
2021/03/17 09:47:26;;;;;;;21.05;12.20;;;;;;;;;;4957538;29;20031;-70
2021/03/17 09:49:52;;;;;;;30.48;13.13;;;;;;;;;;4939859;29;20023;-70
2021/03/17 09:52:18;;;;;;;23.17;12.95;;;;;;;;;;4940236;29;20502;-69
2021/03/17 09:54:44;;;;;;;23.70;11.65;;;;;;;;;;4939474;29;20031;-70
2021/03/17 09:57:13;;;;;;;24.98;11.73;;;;;;;;;;4957551;29;20059;-70
2021/03/17 09:59:44;;;;;;;21.77;11.68;;;;;;;;;;4940017;29;20099;-70
2021/03/17 10:02:10;;;;;;;23.17;10.85;;;;;;;;;;4940201;29;20126;-72
2021/03/17 10:04:43;;;;;;;20.88;11.38;;;;;;;;;;4957550;29;20070;-70
2021/03/17 10:07:36;;;;;;;42.05;15.40;;;;;;;;;;4957108;29;20031;-70
2021/03/17 10:10:06;;;;;;;23.38;9.77;;;;;;;;;;4935203;29;20039;-69
2021/03/17 10:12:36;;;;;;;48.73;15.00;;;;;;;;;;4940187;29;20039;-72
2021/03/17 10:15:12;;;;;;;32.67;13.07;;;;;;;;;;4957214;29;20298;-69
2021/03/17 10:17:38;;;;;;;15.65;7.88;;;;;;;;;;4956634;29;20020;-73
2021/03/17 10:20:07;;;;;;;31.80;13.63;;;;;;;;;;4939613;29;20066;-72
2021/03/17 10:22:34;;;;;;;41.22;15.30;;;;;;;;;;4956527;29;20069;-69
2021/03/17 10:25:01;;;;;;;25.73;10.95;;;;;;;;;;4939263;29;20490;-73
2021/03/17 10:27:31;;;;;;;56.47;24.25;;;;;;;;;;4956912;29;20152;-72
2021/03/17 10:30:01;;;;;;;36.27;16.03;;;;;;;;;;4939938;29;20072;-70
2021/03/17 10:32:27;;;;;;;30.67;14.65;;;;;;;;;;4956926;29;20034;-69
2021/03/17 10:34:53;;;;;;;37.35;13.45;;;;;;;;;;4956801;29;20040;-70
2021/03/17 10:37:20;;;;;;;28.98;11.85;;;;;;;;;;4957048;29;20097;-72
2021/03/17 10:39:47;;;;;;;34.92;14.85;;;;;;;;;;4956810;29;20027;-71
2021/03/17 10:42:31;;;;;;;34.72;13.55;;;;;;;;;;4956845;29;20472;-70
2021/03/17 10:45:10;;;;;;;30.48;11.60;;;;;;;;;;4956793;29;20043;-69
2021/03/17 10:47:38;;;;;;;40.40;14.70;;;;;;;;;;4956850;29;20039;-70
2021/03/17 10:50:06;;;;;;;43.72;16.13;;;;;;;;;;4939166;29;20448;-70
2021/03/17 10:52:32;;;;;;;20.25;9.10;;;;;;;;;;4956761;29;20031;-69
2021/03/17 10:55:07;;;;;;;24.17;10.95;;;;;;;;;;4956457;29;20038;-68
2021/03/17 10:57:33;;;;;;;16.55;8.00;;;;;;;;;;4955528;28;20093;-71
2021/03/17 11:00:10;;;;;;;18.80;7.80;;;;;;;;;;4949591;29;20493;-69
2021/03/17 11:02:36;;;;;;;34.28;11.48;;;;;;;;;;4937290;29;20035;-68
2021/03/17 11:05:11;;;;;;;29.08;11.82;;;;;;;;;;4937382;29;20094;-69
2021/03/17 11:08:09;;;;;;;52.80;16.80;;;;;;;;;;4937238;29;20059;-69
2021/03/17 11:10:46;;;;;;;25.90;10.20;;;;;;;;;;4895192;29;20412;-69
2021/03/17 11:13:12;;;;;;;24.83;9.85;;;;;;;;;;4937080;29;20043;-68
2021/03/17 11:15:58;;;;;;;57.72;17.15;;;;;;;;;;4937069;29;20027;-70
2021/03/17 11:18:35;;;;;;;46.08;14.80;;;;;;;;;;4937123;29;20043;-70
2021/03/17 11:21:08;;;;;;;31.15;12.93;;;;;;;;;;4936262;29;20054;-69
2021/03/17 11:23:34;;;;;;;29.77;13.75;;;;;;;;;;4936806;29;20067;-68
2021/03/17 11:26:01;;;;;;;41.22;18.38;;;;;;;;;;4919615;29;20501;-70
2021/03/17 11:28:28;;;;;;;29.67;12.23;;;;;;;;;;4936426;29;20079;-68
2021/03/17 11:30:58;;;;;;;34.05;15.65;;;;;;;;;;4936439;29;20039;-66
2021/03/17 11:33:25;;;;;;;54.90;22.60;;;;;;;;;;4936286;29;20031;-69
2021/03/17 11:35:52;;;;;;;37.70;16.92;;;;;;;;;;4933449;29;20110;-70
2021/03/17 11:38:18;;;;;;;24.00;12.25;;;;;;;;;;4936127;29;20468;-70
2021/03/17 11:40:44;;;;;;;86.78;34.08;;;;;;;;;;4935994;29;20035;-71
2021/03/17 11:43:12;;;;;;;27.55;11.75;;;;;;;;;;4936662;29;20028;-70
2021/03/17 11:45:39;;;;;;;53.00;21.35;;;;;;;;;;4919245;29;20040;-69
2021/03/17 11:48:05;;;;;;;65.53;20.58;;;;;;;;;;4936282;29;20024;-70
2021/03/17 11:50:31;;;;;;;21.15;11.05;;;;;;;;;;4919324;29;20032;-73
2021/03/17 11:52:57;;;;;;;32.30;12.68;;;;;;;;;;4919332;29;20032;-70
2021/03/17 11:55:24;;;;;;;31.75;14.73;;;;;;;;;;4936232;29;20628;-68
2021/03/17 11:57:50;;;;;;;28.67;11.93;;;;;;;;;;4919268;29;20083;-67
2021/03/17 12:00:17;;;;;;;43.30;17.58;;;;;;;;;;4944836;29;20055;-69
2021/03/17 12:02:43;;;;;;;24.55;10.52;;;;;;;;;;4955453;29;20091;-69
2021/03/17 12:05:10;;;;;;;14.07;8.55;;;;;;;;;;4937843;29;20057;-69
2021/03/17 12:07:36;;;;;;;26.02;11.18;;;;;;;;;;4954836;28;20038;-70
2021/03/17 12:10:03;;;;;;;22.73;9.98;;;;;;;;;;4937832;29;20053;-71
2021/03/17 12:12:30;;;;;;;21.90;9.55;;;;;;;;;;4955182;29;20034;-68
2021/03/17 12:14:56;;;;;;;16.48;9.98;;;;;;;;;;4954672;29;20038;-73
2021/03/17 12:17:22;;;;;;;21.42;10.65;;;;;;;;;;4937880;29;20054;-68
2021/03/17 12:19:48;;;;;;;17.15;8.20;;;;;;;;;;4955055;29;20420;-70
2021/03/17 12:22:14;;;;;;;36.13;15.35;;;;;;;;;;4954311;29;20035;-68
2021/03/17 12:24:40;;;;;;;81.13;31.90;;;;;;;;;;4954524;29;20428;-69
2021/03/17 12:27:06;;;;;;;30.90;15.30;;;;;;;;;;4954946;29;20041;-70
2021/03/17 12:29:32;;;;;;;70.28;32.00;;;;;;;;;;4955049;29;20379;-69
2021/03/17 12:31:58;;;;;;;25.13;12.25;;;;;;;;;;4954828;29;20114;-68
2021/03/17 12:34:24;;;;;;;39.95;18.90;;;;;;;;;;4954838;29;20038;-68
2021/03/17 12:36:50;;;;;;;65.78;21.90;;;;;;;;;;4954210;29;20153;-70
2021/03/17 12:39:16;;;;;;;28.40;13.82;;;;;;;;;;4954552;29;20027;-71
2021/03/17 12:41:43;;;;;;;393.25;136.18;;;;;;;;;;4953631;29;20023;-71
2021/03/17 12:44:09;;;;;;;31.50;14.35;;;;;;;;;;4954641;29;20043;-69
2021/03/17 12:46:35;;;;;;;30.30;16.05;;;;;;;;;;4937047;29;20118;-69
2021/03/17 12:49:02;;;;;;;54.53;22.98;;;;;;;;;;4954509;29;20031;-67
2021/03/17 12:51:28;;;;;;;22.33;11.88;;;;;;;;;;4954434;29;20086;-68
2021/03/17 12:53:54;;;;;;;99.00;33.80;;;;;;;;;;4954721;29;20031;-69
2021/03/17 12:56:20;;;;;;;83.55;30.45;;;;;;;;;;4954405;29;20031;-68
2021/03/17 12:58:46;;;;;;;26.63;13.07;;;;;;;;;;4954298;29;20035;-68
2021/03/17 13:01:12;;;;;;;29.67;16.05;;;;;;;;;;4954161;29;20051;-69
2021/03/17 13:03:38;;;;;;;35.72;15.63;;;;;;;;;;4954321;29;20038;-70
2021/03/17 13:06:04;;;;;;;45.45;19.00;;;;;;;;;;4954336;29;20035;-67
2021/03/17 13:08:30;;;;;;;25.60;14.52;;;;;;;;;;4954367;29;20082;-68
2021/03/17 13:10:56;;;;;;;28.30;13.52;;;;;;;;;;4954455;29;20030;-68
2021/03/17 13:13:22;;;;;;;30.38;14.27;;;;;;;;;;4954183;29;20024;-69
2021/03/17 13:15:49;;;;;;;23.40;11.57;;;;;;;;;;4954082;29;20027;-69
2021/03/17 13:18:15;;;;;;;34.35;16.98;;;;;;;;;;4954395;29;20079;-67
2021/03/17 13:20:41;;;;;;;42.58;19.40;;;;;;;;;;4953511;28;20035;-69
2021/03/17 13:23:08;;;;;;;30.73;14.88;;;;;;;;;;4936510;29;20090;-68
2021/03/17 13:25:34;;;;;;;24.77;12.60;;;;;;;;;;4954020;29;20058;-73
2021/03/17 13:28:00;;;;;;;38.33;15.20;;;;;;;;;;4936865;29;20546;-69
2021/03/17 13:30:26;;;;;;;60.47;20.75;;;;;;;;;;4953925;29;20035;-69
2021/03/17 13:32:52;;;;;;;27.80;14.15;;;;;;;;;;4954130;29;20063;-69
2021/03/17 13:35:18;;;;;;;28.08;12.88;;;;;;;;;;4954068;29;20065;-68
2021/03/17 13:37:44;;;;;;;31.75;14.20;;;;;;;;;;4953915;29;20055;-69
2021/03/17 13:40:15;;;;;;;31.63;14.63;;;;;;;;;;4954098;29;20039;-70
2021/03/17 13:42:45;;;;;;;28.73;17.80;;;;;;;;;;4936841;29;20067;-74
2021/03/17 13:45:12;;;;;;;26.80;12.60;;;;;;;;;;4936584;29;20661;-67
2021/03/17 13:47:38;;;;;;;25.48;12.13;;;;;;;;;;4953881;29;20027;-69
2021/03/17 13:50:06;;;;;;;23.40;11.70;;;;;;;;;;4953698;29;20023;-70
2021/03/17 13:52:32;;;;;;;30.48;14.57;;;;;;;;;;4936432;29;20392;-73
2021/03/17 13:54:58;;;;;;;28.90;12.60;;;;;;;;;;4953537;29;20047;-72
2021/03/17 13:57:24;;;;;;;35.92;14.80;;;;;;;;;;4953695;29;20059;-69
2021/03/17 13:59:50;;;;;;;23.83;12.05;;;;;;;;;;4953628;28;20455;-71
2021/03/17 14:02:16;;;;;;;26.25;10.63;;;;;;;;;;4953561;29;20114;-70
2021/03/17 14:04:42;;;;;;;26.10;12.18;;;;;;;;;;4936363;29;20232;-72
2021/03/17 14:07:08;;;;;;;25.63;11.95;;;;;;;;;;4936604;29;20031;-69
2021/03/17 14:09:34;;;;;;;64.90;24.80;;;;;;;;;;4936497;29;20046;-68
2021/03/17 14:12:00;;;;;;;45.65;19.67;;;;;;;;;;4953557;29;20039;-69
2021/03/17 14:14:26;;;;;;;26.10;12.38;;;;;;;;;;4953876;29;20019;-67
2021/03/17 14:16:52;;;;;;;25.45;11.88;;;;;;;;;;4952679;29;20511;-68
2021/03/17 14:19:18;;;;;;;20.38;10.85;;;;;;;;;;4952731;29;20039;-72
2021/03/17 14:21:44;;;;;;;24.20;11.68;;;;;;;;;;4936315;29;20039;-73
2021/03/17 14:24:10;;;;;;;21.58;11.15;;;;;;;;;;4936406;29;20046;-69
2021/03/17 14:26:37;;;;;;;17.85;9.95;;;;;;;;;;4936083;29;20035;-69
2021/03/17 14:29:04;;;;;;;32.47;13.45;;;;;;;;;;4953791;29;20095;-71
2021/03/17 14:31:30;;;;;;;28.08;12.93;;;;;;;;;;4954780;28;20371;-69
2021/03/17 14:33:56;;;;;;;23.23;11.43;;;;;;;;;;4957247;29;20035;-70
2021/03/17 14:36:22;;;;;;;25.85;12.93;;;;;;;;;;4956975;29;20363;-68
2021/03/17 14:38:49;;;;;;;23.33;11.77;;;;;;;;;;4939490;29;20375;-71
2021/03/17 14:41:18;;;;;;;41.40;16.38;;;;;;;;;;4956538;29;20066;-70
2021/03/17 14:43:45;;;;;;;26.83;12.93;;;;;;;;;;4938687;29;20038;-71
2021/03/17 14:46:15;;;;;;;30.73;13.48;;;;;;;;;;4939153;29;20050;-71
2021/03/17 14:48:41;;;;;;;29.70;13.15;;;;;;;;;;4956726;29;20031;-69
2021/03/17 14:51:07;;;;;;;53.40;21.55;;;;;;;;;;4956234;29;20384;-73
2021/03/17 14:53:33;;;;;;;26.98;13.20;;;;;;;;;;4939333;29;20133;-70
2021/03/17 14:55:59;;;;;;;28.38;13.27;;;;;;;;;;4956041;29;20062;-71
2021/03/17 14:58:25;;;;;;;57.35;23.52;;;;;;;;;;4939133;29;20031;-69
2021/03/17 15:00:51;;;;;;;42.38;20.23;;;;;;;;;;4956354;29;20523;-71
2021/03/17 15:03:17;;;;;;;42.95;16.45;;;;;;;;;;4956092;29;20118;-71
2021/03/17 15:05:43;;;;;;;55.47;20.55;;;;;;;;;;4956212;29;20469;-73
2021/03/17 15:08:09;;;;;;;36.92;16.27;;;;;;;;;;4956332;29;20036;-67
2021/03/17 15:10:35;;;;;;;34.97;15.45;;;;;;;;;;4956461;29;20376;-70
2021/03/17 15:13:01;;;;;;;47.03;18.98;;;;;;;;;;4956071;29;20196;-67
2021/03/17 15:15:27;;;;;;;25.05;12.73;;;;;;;;;;4956157;29;20056;-70
2021/03/17 15:17:54;;;;;;;32.80;13.70;;;;;;;;;;4939148;29;20333;-71
2021/03/17 15:20:21;;;;;;;52.15;20.30;;;;;;;;;;4955742;29;20424;-70
2021/03/17 15:22:47;;;;;;;42.63;19.90;;;;;;;;;;4938731;29;20035;-69
2021/03/17 15:25:14;;;;;;;29.40;13.90;;;;;;;;;;4956127;29;20036;-71
2021/03/17 15:27:41;;;;;;;23.13;11.73;;;;;;;;;;4938962;29;20031;-68
2021/03/17 15:30:08;;;;;;;27.73;14.57;;;;;;;;;;4956001;29;20430;-73
2021/03/17 15:32:34;;;;;;;28.13;13.80;;;;;;;;;;4956156;29;20575;-69
2021/03/17 15:35:00;;;;;;;23.08;12.88;;;;;;;;;;4956089;29;20039;-68
2021/03/17 15:37:26;;;;;;;27.63;12.93;;;;;;;;;;4938592;29;20039;-70
2021/03/17 15:39:52;;;;;;;22.63;11.93;;;;;;;;;;4954915;29;20035;-72
2021/03/17 15:42:19;;;;;;;31.40;15.30;;;;;;;;;;4937808;28;20039;-70
2021/03/17 15:44:44;;;;;;;26.27;12.23;;;;;;;;;;4937020;29;20042;-72
2021/03/17 15:47:10;;;;;;;29.27;14.02;;;;;;;;;;4938033;29;20031;-71
2021/03/17 15:49:36;;;;;;;27.77;14.38;;;;;;;;;;4955118;29;20035;-71
2021/03/17 15:52:03;;;;;;;41.10;12.45;;;;;;;;;;4955133;29;20506;-72
2021/03/17 15:54:32;;;;;;;26.17;13.18;;;;;;;;;;4938010;29;20122;-72
2021/03/17 15:56:58;;;;;;;29.42;13.70;;;;;;;;;;4938051;29;20090;-72
2021/03/17 15:59:24;;;;;;;26.70;13.57;;;;;;;;;;4938049;28;20059;-69
2021/03/17 16:01:50;;;;;;;29.08;14.52;;;;;;;;;;4954996;29;20050;-72
2021/03/17 16:04:20;;;;;;;28.45;14.52;;;;;;;;;;4937591;29;20036;-76
2021/03/17 16:06:45;;;;;;;29.92;14.48;;;;;;;;;;4937730;29;20130;-72
2021/03/17 16:09:11;;;;;;;26.50;12.63;;;;;;;;;;4937368;29;20118;-72
2021/03/17 16:11:37;;;;;;;27.85;12.38;;;;;;;;;;4937684;29;20542;-70
2021/03/17 16:14:03;;;;;;;27.75;12.90;;;;;;;;;;4938068;29;20027;-68
2021/03/17 16:16:30;;;;;;;42.90;24.08;;;;;;;;;;4955022;29;20036;-71
2021/03/17 16:18:56;;;;;;;26.13;12.07;;;;;;;;;;4937587;29;20039;-68
2021/03/17 16:21:22;;;;;;;27.63;12.35;;;;;;;;;;4937762;29;20400;-69
2021/03/17 16:23:48;;;;;;;34.72;15.30;;;;;;;;;;4954950;29;20038;-69
2021/03/17 16:26:17;;;;;;;38.45;17.40;;;;;;;;;;4954801;29;20110;-72
2021/03/17 16:28:43;;;;;;;27.00;12.95;;;;;;;;;;4936202;29;20027;-73
2021/03/17 16:31:09;;;;;;;26.33;13.45;;;;;;;;;;4937385;29;20035;-71
2021/03/17 16:33:35;;;;;;;26.85;13.73;;;;;;;;;;4937124;29;20369;-68
2021/03/17 16:36:06;;;;;;;27.50;12.48;;;;;;;;;;4954806;29;20046;-70
2021/03/17 16:38:32;;;;;;;33.10;14.25;;;;;;;;;;4937239;29;20031;-73
2021/03/17 16:41:05;;;;;;;34.85;13.93;;;;;;;;;;4936844;29;20082;-71
2021/03/17 16:43:31;;;;;;;38.20;18.75;;;;;;;;;;4939810;29;20035;-72
2021/03/17 16:45:57;;;;;;;47.17;19.73;;;;;;;;;;4937584;29;20510;-70
2021/03/17 16:48:23;;;;;;;27.70;14.48;;;;;;;;;;4953843;29;20027;-70
2021/03/17 16:50:49;;;;;;;32.42;14.15;;;;;;;;;;4954048;29;20031;-71
2021/03/17 16:53:15;;;;;;;78.18;35.03;;;;;;;;;;4954378;29;20085;-71
2021/03/17 16:55:41;;;;;;;149.70;66.97;;;;;;;;;;4936135;29;20034;-71
2021/03/17 16:58:07;;;;;;;35.33;15.80;;;;;;;;;;4937001;29;20395;-73
2021/03/17 17:00:33;;;;;;;41.55;17.77;;;;;;;;;;4936482;29;20415;-72
2021/03/17 17:03:03;;;;;;;46.67;21.10;;;;;;;;;;4936140;29;20115;-72
2021/03/17 17:05:29;;;;;;;75.90;29.98;;;;;;;;;;4936184;29;20094;-73
2021/03/17 17:07:55;;;;;;;73.10;30.40;;;;;;;;;;4936016;29;20031;-71
2021/03/17 17:10:26;;;;;;;117.10;52.13;;;;;;;;;;4936287;29;20471;-73
2021/03/17 17:12:53;;;;;;;53.75;23.27;;;;;;;;;;4936091;29;20476;-71
2021/03/17 17:15:19;;;;;;;63.00;29.65;;;;;;;;;;4935312;29;20042;-74
2021/03/17 17:17:46;;;;;;;39.15;17.60;;;;;;;;;;4953371;29;20122;-73
2021/03/17 17:20:17;;;;;;;66.40;33.83;;;;;;;;;;4936742;29;20069;-72
2021/03/17 17:22:43;;;;;;;31.33;15.57;;;;;;;;;;4936829;29;20039;-73
2021/03/17 17:25:13;;;;;;;36.45;16.02;;;;;;;;;;4935763;29;20043;-72
2021/03/17 17:27:40;;;;;;;138.57;62.90;;;;;;;;;;4953582;29;20035;-71
2021/03/17 17:30:07;;;;;;;88.25;41.08;;;;;;;;;;4936683;29;20042;-72
2021/03/17 17:32:33;;;;;;;94.20;40.95;;;;;;;;;;4936830;29;20166;-71
2021/03/17 17:35:00;;;;;;;36.60;17.70;;;;;;;;;;4936693;29;20512;-70
2021/03/17 17:37:26;;;;;;;40.70;20.17;;;;;;;;;;4953877;29;20172;-72
2021/03/17 17:39:52;;;;;;;38.08;17.05;;;;;;;;;;4954008;29;20150;-72
2021/03/17 17:42:18;;;;;;;30.17;15.43;;;;;;;;;;4954168;29;20031;-71
2021/03/17 17:44:44;;;;;;;35.70;16.45;;;;;;;;;;4953812;29;20054;-70
2021/03/17 17:47:12;;;;;;;42.90;19.35;;;;;;;;;;4953895;29;20106;-71
2021/03/17 17:49:38;;;;;;;34.30;15.82;;;;;;;;;;4953702;29;20056;-73
2021/03/17 17:52:07;;;;;;;39.53;17.23;;;;;;;;;;4953929;29;20110;-74
2021/03/17 17:54:33;;;;;;;34.17;15.77;;;;;;;;;;4953773;29;20130;-71
2021/03/17 17:56:59;;;;;;;35.83;14.43;;;;;;;;;;4953843;29;20035;-71
2021/03/17 17:59:25;;;;;;;37.35;16.92;;;;;;;;;;4953734;29;20039;-72
2021/03/17 18:01:52;;;;;;;32.75;16.02;;;;;;;;;;4953863;29;20091;-71
2021/03/17 18:04:18;;;;;;;41.20;20.08;;;;;;;;;;4953519;29;20121;-72
2021/03/17 18:06:44;;;;;;;33.67;18.50;;;;;;;;;;4938501;29;20034;-71
2021/03/17 18:09:10;;;;;;;33.10;15.40;;;;;;;;;;4940162;29;20388;-70
2021/03/17 18:11:36;;;;;;;36.47;16.70;;;;;;;;;;4957349;29;20111;-70
2021/03/17 18:14:02;;;;;;;33.47;15.63;;;;;;;;;;4939237;29;20122;-71
2021/03/17 18:16:28;;;;;;;40.55;16.50;;;;;;;;;;4957249;29;20082;-72
2021/03/17 18:18:54;;;;;;;35.38;15.57;;;;;;;;;;4957255;29;20032;-75
2021/03/17 18:21:20;;;;;;;34.95;14.43;;;;;;;;;;4939926;29;20109;-71
2021/03/17 18:23:47;;;;;;;72.25;39.05;;;;;;;;;;4957081;29;20031;-72
2021/03/17 18:26:13;;;;;;;36.50;16.40;;;;;;;;;;4939352;29;20093;-71
2021/03/17 18:28:42;;;;;;;32.55;15.98;;;;;;;;;;4954594;29;20062;-72
2021/03/17 18:31:08;;;;;;;33.80;14.98;;;;;;;;;;4938691;29;20032;-71
2021/03/17 18:33:37;;;;;;;44.63;18.38;;;;;;;;;;4938626;29;20114;-73
2021/03/17 18:36:03;;;;;;;34.83;14.55;;;;;;;;;;4938587;29;20054;-73
2021/03/17 18:38:31;;;;;;;38.88;17.77;;;;;;;;;;4938587;29;20023;-72
2021/03/17 18:40:57;;;;;;;38.45;19.17;;;;;;;;;;4936295;29;20023;-69
2021/03/17 18:43:26;;;;;;;40.10;16.92;;;;;;;;;;4956023;29;20028;-73
2021/03/17 18:45:52;;;;;;;38.70;16.75;;;;;;;;;;4937958;29;20046;-73
2021/03/17 18:48:18;;;;;;;36.85;16.77;;;;;;;;;;4938460;29;20122;-72
2021/03/17 18:50:44;;;;;;;35.00;15.20;;;;;;;;;;4955508;29;20060;-68
2021/03/17 18:53:10;;;;;;;43.65;20.75;;;;;;;;;;4956620;29;20031;-69
2021/03/17 18:55:41;;;;;;;34.20;17.40;;;;;;;;;;4956688;29;20041;-73
2021/03/17 18:58:08;;;;;;;35.67;16.30;;;;;;;;;;4957187;29;20024;-71
2021/03/17 19:00:35;;;;;;;34.25;14.80;;;;;;;;;;4956521;29;20058;-71
2021/03/17 19:03:03;;;;;;;40.85;25.15;;;;;;;;;;4956562;29;20372;-69
2021/03/17 19:05:31;;;;;;;34.50;15.95;;;;;;;;;;4955770;29;20027;-76
2021/03/17 19:08:01;;;;;;;35.38;15.75;;;;;;;;;;4937576;29;20480;-74
2021/03/17 19:10:28;;;;;;;38.63;18.00;;;;;;;;;;4938124;29;20023;-77
2021/03/17 19:12:54;;;;;;;36.28;16.02;;;;;;;;;;4938145;29;20047;-75
2021/03/17 19:15:24;;;;;;;39.58;17.60;;;;;;;;;;4937738;29;20029;-73
2021/03/17 19:17:54;;;;;;;36.70;17.88;;;;;;;;;;4936562;29;20117;-72
2021/03/17 19:20:36;;;;;;;53.22;26.45;;;;;;;;;;4937339;29;20031;-75
2021/03/17 19:23:03;;;;;;;49.25;27.48;;;;;;;;;;4937802;29;20043;-75
2021/03/17 19:25:30;;;;;;;29.00;15.57;;;;;;;;;;4937141;29;20039;-76
2021/03/17 19:27:56;;;;;;;40.40;17.75;;;;;;;;;;4953686;29;20087;-78
2021/03/17 19:30:26;;;;;;;31.13;15.27;;;;;;;;;;4955005;29;20465;-77
2021/03/17 19:32:55;;;;;;;32.17;15.25;;;;;;;;;;4954988;29;20476;-73
2021/03/17 19:35:22;;;;;;;42.95;18.65;;;;;;;;;;4934705;29;20035;-75
2021/03/17 19:37:48;;;;;;;31.40;15.30;;;;;;;;;;4937064;29;20035;-74
2021/03/17 19:40:15;;;;;;;29.40;13.45;;;;;;;;;;4938045;29;20114;-75
2021/03/17 19:42:42;;;;;;;35.92;16.08;;;;;;;;;;4954731;29;20027;-76
2021/03/17 19:45:09;;;;;;;37.60;16.35;;;;;;;;;;4937050;29;20035;-76
2021/03/17 19:47:44;;;;;;;33.63;15.30;;;;;;;;;;4937490;29;20527;-77
2021/03/17 19:50:13;;;;;;;35.83;15.63;;;;;;;;;;4935422;29;20462;-80
2021/03/17 19:52:45;;;;;;;30.23;14.32;;;;;;;;;;4953118;29;20082;-79
2021/03/17 19:55:21;;;;;;;33.80;14.40;;;;;;;;;;4952816;29;20055;-77
2021/03/17 19:57:56;;;;;;;31.30;15.32;;;;;;;;;;4952505;29;20038;-78
2021/03/17 20:00:26;;;;;;;28.58;13.55;;;;;;;;;;4935456;29;20095;-74
2021/03/17 20:02:55;;;;;;;37.70;15.45;;;;;;;;;;4936788;29;20030;-73
2021/03/17 20:05:22;;;;;;;34.33;14.15;;;;;;;;;;4934610;29;20047;-78
2021/03/17 20:08:14;;;;;;;29.75;14.27;;;;;;;;;;4936577;29;20035;-79
2021/03/17 20:10:41;;;;;;;23.13;11.07;;;;;;;;;;4934308;29;20464;-77
2021/03/17 20:13:08;;;;;;;29.05;14.45;;;;;;;;;;4935944;29;20039;-76
2021/03/17 20:15:41;;;;;;;32.70;14.13;;;;;;;;;;4936075;29;20027;-78
2021/03/17 20:18:10;;;;;;;30.98;14.07;;;;;;;;;;4934686;29;20023;-80
2021/03/17 20:20:36;;;;;;;30.30;13.90;;;;;;;;;;4953630;29;20043;-77
2021/03/17 20:23:02;;;;;;;28.45;13.32;;;;;;;;;;4935292;29;20391;-77